Terminal Aerodrome Forecast
Issued by NWS

Home | Current Version | Previous Version | Text Only | Print | Product List | Glossary On
Versions: 1 2 3 4 5 6 7 8 9 10 11 12 13 14
000
FTUS46 KSEW 241300 AAA
TAFBLI
TAF AMD
KBLI 241313Z 2413/2512 17010KT P6SM -RA SCT008 OVC013
      TEMPO 2413/2415 5SM -RA BR OVC008
     FM241600 17010KT P6SM VCSH OVC013
     FM241900 17012KT P6SM VCSH SCT015 OVC025
     FM242100 18014KT P6SM SCT025 OVC045
     FM250700 17010KT P6SM BKN025 OVC040=

USA.gov is the U.S. government's official web portal to all federal, state and local government web resources and services.